< < Back
Terminal Aerodrome Forecast


Current Version              Previous Versions:   1  2  3  4  5  6  7  8  9  

Terminal Aerodrome Forecast

858
FTUS42 KILM 251734
TAFILM
TAF
KILM 251734Z 2518/2618 19010KT 6SM -RA SCT045 OVC100
     FM252000 20010G15KT P6SM SCT024 BKN040
     FM260200 22010KT P6SM VCSH SCT007 OVC015
      TEMPO 2608/2610 BKN006
     FM261300 26013G18KT P6SM FEW040=



Latest METAR

295
SAUS70 KWBC 251800 RRA
MTRILM
METAR KILM 251753Z 00000KT 10SM -RA FEW028 BKN080 OVC100 17/13 A2984 RMK
AO2 SLP106 P0001 60002 T01670133 10200 20144 58029


USA.gov is the U.S. government's official web portal to all federal, state and local government web resources and services.